Terminal Aerodrome Forecast
Issued by NWS

Home | Current Version | Previous Version | Text Only | Print | Product List | Glossary On
Versions: 1 2 3 4 5 6 7 8 9 10 11 12 13 14 15 16 17 18 19 20 21
000
FTUS42 KMHX 240633 AAA
TAFOAJ
TAF AMD
KOAJ 240633Z 2407/2506 21005KT P6SM BKN009 BKN015 OVC025
     FM241200 21005KT P6SM VCSH OVC040
     FM241500 21005KT P6SM VCSH OVC040
     FM241800 19010KT 5SM SHRA OVC040
     FM250000 18005KT 4SM SHRA OVC015
      AMD LTD TO CLD VIS AND WIND=

USA.gov is the U.S. government's official web portal to all federal, state and local government web resources and services.